createdAt,value
2022-07-25T00:03:29.314Z,72.11
2022-07-25T00:08:34.313Z,72.18
2022-07-25T00:13:41.991Z,72.15
2022-07-25T00:18:46.983Z,72.46
2022-07-25T00:23:51.862Z,73.22
2022-07-25T00:28:59.432Z,74.10
2022-07-25T00:34:04.691Z,74.29
2022-07-25T00:39:10.052Z,73.94
2022-07-25T00:44:28.050Z,74.77
2022-07-25T00:49:33.011Z,74.99
2022-07-25T00:54:37.973Z,74.90
2022-07-25T00:59:45.730Z,74.92
2022-07-25T01:04:50.762Z,75.65
2022-07-25T01:09:56.472Z,75.83
2022-07-25T01:15:03.955Z,75.88
2022-07-25T01:20:16.922Z,76.48
2022-07-25T01:25:22.589Z,77.08
2022-07-25T01:30:28.613Z,76.72
2022-07-25T01:35:40.167Z,76.55
2022-07-25T01:40:48.245Z,77.22
2022-07-25T01:45:53.345Z,76.91
2022-07-25T01:51:00.963Z,77.15
2022-07-25T01:56:06.209Z,77.49
2022-07-25T02:01:13.916Z,77.58
2022-07-25T02:06:22.326Z,76.94
2022-07-25T02:11:27.331Z,76.91
2022-07-25T02:16:32.848Z,76.80
2022-07-25T02:21:40.407Z,77.22
2022-07-25T02:26:45.321Z,76.87
2022-07-25T02:31:52.113Z,76.84
2022-07-25T02:36:59.603Z,76.62
2022-07-25T02:42:04.661Z,75.88
2022-07-25T02:47:09.881Z,76.65
2022-07-25T02:52:17.629Z,76.15
2022-07-25T02:57:22.537Z,76.02
2022-07-25T03:02:27.424Z,75.64
2022-07-25T03:07:35.178Z,75.51
2022-07-25T03:12:43.342Z,75.18
2022-07-25T03:17:48.114Z,75.15
2022-07-25T03:22:55.703Z,75.29
2022-07-25T03:28:03.178Z,74.70
2022-07-25T03:33:08.143Z,75.11
2022-07-25T03:38:15.872Z,74.35
2022-07-25T03:43:21.011Z,74.18
2022-07-25T03:48:26.126Z,73.91
2022-07-25T03:53:34.079Z,74.00
2022-07-25T03:58:40.052Z,73.61
2022-07-25T04:03:44.978Z,73.68
2022-07-25T04:08:53.380Z,73.53
2022-07-25T04:13:58.778Z,73.37
2022-07-25T04:19:03.675Z,73.86
2022-07-25T04:24:13.931Z,73.82
2022-07-25T04:29:18.878Z,73.33
2022-07-25T04:34:23.997Z,73.47
2022-07-25T04:39:31.644Z,72.97
2022-07-25T04:44:37.961Z,71.86
2022-07-25T04:49:42.929Z,71.40
2022-07-25T04:54:50.521Z,71.42
2022-07-25T04:59:55.489Z,69.95
2022-07-25T05:05:00.439Z,69.06
2022-07-25T05:10:12.011Z,68.36
2022-07-25T05:15:16.995Z,68.09
2022-07-25T05:20:22.027Z,66.76
2022-07-25T05:25:30.164Z,65.54
2022-07-25T05:30:39.562Z,62.63
2022-07-25T05:35:45.489Z,62.25
2022-07-25T05:40:58.644Z,63.95
2022-07-25T05:46:05.263Z,61.45
2022-07-25T05:51:10.652Z,60.37
2022-07-25T05:56:18.437Z,59.39
2022-07-25T06:01:23.743Z,59.28
2022-07-25T06:06:30.754Z,57.17
2022-07-25T06:11:51.079Z,54.22
2022-07-25T06:16:59.809Z,54.52
2022-07-25T06:22:04.693Z,53.08
2022-07-25T06:27:14.974Z,53.84
2022-07-25T06:32:24.548Z,52.70
2022-07-25T06:37:29.572Z,52.82
2022-07-25T06:42:41.188Z,50.86
2022-07-25T06:47:48.016Z,50.19
2022-07-25T06:52:54.586Z,51.98
2022-07-25T06:58:02.187Z,51.97
2022-07-25T07:03:07.381Z,50.53
2022-07-25T07:08:15.571Z,53.03
2022-07-25T07:13:24.622Z,51.51
2022-07-25T07:18:30.197Z,51.18
2022-07-25T07:23:35.583Z,52.72
2022-07-25T07:28:44.645Z,52.69
2022-07-25T07:33:49.735Z,53.20
2022-07-25T07:38:55.099Z,51.91
2022-07-25T07:44:02.606Z,52.36
2022-07-25T07:49:08.023Z,52.87
2022-07-25T07:54:25.695Z,52.72
2022-07-25T07:59:35.086Z,53.36
2022-07-25T08:04:39.950Z,53.49
2022-07-25T08:09:44.796Z,52.55
2022-07-25T08:14:52.301Z,53.12
2022-07-25T08:20:05.518Z,52.95
2022-07-25T08:25:22.526Z,52.04
2022-07-25T08:30:34.262Z,52.10
2022-07-25T08:35:49.174Z,51.81
2022-07-25T08:40:54.689Z,51.16
2022-07-25T08:46:04.098Z,51.78
2022-07-25T08:51:11.058Z,52.38
2022-07-25T08:56:20.590Z,51.08
2022-07-25T09:01:34.468Z,51.13
2022-07-25T09:06:40.433Z,50.87
2022-07-25T09:11:45.685Z,51.20
2022-07-25T09:16:53.655Z,51.09
2022-07-25T09:22:04.622Z,51.21
2022-07-25T09:27:13.102Z,50.36
2022-07-25T09:32:22.809Z,49.86
2022-07-25T09:37:34.126Z,49.95
2022-07-25T09:42:43.910Z,49.72
2022-07-25T09:48:00.196Z,49.66
2022-07-25T09:53:05.883Z,49.81
2022-07-25T09:58:10.747Z,49.47
2022-07-25T10:03:28.161Z,49.83
2022-07-25T10:08:38.384Z,49.50
2022-07-25T10:13:43.280Z,48.97
2022-07-25T10:18:56.350Z,46.70
2022-07-25T10:24:03.158Z,46.51
2022-07-25T10:29:11.710Z,47.19
2022-07-25T10:34:20.735Z,46.80
2022-07-25T10:39:26.739Z,47.78
2022-07-25T10:44:43.011Z,47.49
2022-07-25T10:50:21.999Z,46.78
2022-07-25T10:55:26.626Z,47.43
2022-07-25T11:00:32.452Z,46.73
2022-07-25T11:05:54.721Z,48.19
2022-07-25T11:11:02.134Z,47.96
2022-07-25T11:16:07.968Z,46.86
2022-07-25T11:21:17.167Z,45.81
2022-07-25T11:26:22.159Z,45.98
2022-07-25T11:31:27.908Z,46.54
2022-07-25T11:36:35.847Z,46.78
2022-07-25T11:41:41.250Z,46.50
2022-07-25T11:46:47.346Z,45.90
2022-07-25T11:51:55.364Z,46.33
2022-07-25T11:57:00.724Z,46.48
2022-07-25T12:02:05.823Z,46.18
2022-07-25T12:07:15.068Z,45.84
2022-07-25T12:12:20.145Z,46.30
2022-07-25T12:17:25.010Z,46.23
2022-07-25T12:22:35.354Z,45.66
2022-07-25T12:27:40.658Z,45.90
2022-07-25T12:32:47.769Z,46.26
2022-07-25T12:37:55.740Z,45.72
2022-07-25T12:43:01.307Z,45.78
2022-07-25T12:48:06.725Z,47.07
2022-07-25T12:53:16.359Z,46.91
2022-07-25T12:58:21.758Z,46.95
2022-07-25T13:03:26.750Z,46.79
2022-07-25T13:08:37.906Z,46.30
2022-07-25T13:13:43.284Z,46.17
2022-07-25T13:18:48.338Z,46.78
2022-07-25T13:23:55.913Z,46.67
2022-07-25T13:29:01.983Z,46.13
2022-07-25T13:34:06.955Z,47.28
2022-07-25T13:39:14.587Z,46.98
2022-07-25T13:44:22.531Z,46.80
2022-07-25T13:49:27.927Z,46.31
2022-07-25T13:54:37.562Z,46.00
2022-07-25T13:59:44.478Z,45.63
2022-07-25T14:04:52.889Z,46.38
2022-07-25T14:10:00.632Z,46.57
2022-07-25T14:15:05.615Z,45.65
2022-07-25T14:20:12.667Z,45.66
2022-07-25T14:25:20.298Z,45.87
2022-07-25T14:30:25.457Z,45.58
2022-07-25T14:35:32.683Z,45.62
2022-07-25T14:40:40.563Z,45.31
2022-07-25T14:45:45.570Z,45.61
2022-07-25T14:50:50.784Z,45.12
2022-07-25T14:55:58.281Z,44.56
2022-07-25T15:01:03.432Z,44.92
2022-07-25T15:06:10.514Z,44.63
2022-07-25T15:11:17.948Z,44.26
2022-07-25T15:16:23.500Z,44.49
2022-07-25T15:21:28.838Z,44.82
2022-07-25T15:26:37.043Z,44.24
2022-07-25T15:31:42.092Z,44.84
2022-07-25T15:36:47.297Z,44.76
2022-07-25T15:41:55.009Z,45.05
2022-07-25T15:47:00.054Z,45.29
2022-07-25T15:52:04.983Z,45.71
2022-07-25T15:57:12.477Z,45.42
2022-07-25T16:02:18.124Z,45.97
2022-07-25T16:07:23.477Z,45.75
2022-07-25T16:12:30.993Z,45.95
2022-07-25T16:17:36.769Z,46.02
2022-07-25T16:22:42.440Z,45.70
2022-07-25T16:27:49.992Z,45.82
2022-07-25T16:32:55.737Z,45.61
2022-07-25T16:38:03.510Z,46.06
2022-07-25T16:43:10.958Z,45.76
2022-07-25T16:48:15.981Z,45.92
2022-07-25T16:53:20.917Z,45.95
2022-07-25T16:58:28.535Z,45.98
2022-07-25T17:03:33.833Z,46.01
2022-07-25T17:08:39.243Z,45.63
2022-07-25T17:13:52.032Z,45.50
2022-07-25T17:18:58.023Z,46.30
2022-07-25T17:24:04.998Z,46.27
2022-07-25T17:29:12.730Z,46.27
2022-07-25T17:34:17.721Z,46.38
2022-07-25T17:39:22.772Z,46.29
2022-07-25T17:44:32.936Z,46.65
2022-07-25T17:49:37.949Z,46.90
2022-07-25T17:54:43.065Z,47.19
2022-07-25T17:59:50.802Z,47.21
2022-07-25T18:04:56.157Z,47.52
2022-07-25T18:10:01.228Z,47.63
2022-07-25T18:15:12.174Z,47.55
2022-07-25T18:20:18.777Z,47.82
2022-07-25T18:25:23.753Z,47.91
2022-07-25T18:30:31.453Z,49.70
2022-07-25T18:35:38.730Z,53.14
2022-07-25T18:40:45.033Z,54.34
2022-07-25T18:45:54.211Z,55.38
2022-07-25T18:50:59.155Z,57.30
2022-07-25T18:56:05.714Z,56.50
2022-07-25T19:01:13.412Z,57.13
2022-07-25T19:06:19.301Z,59.02
2022-07-25T19:11:24.651Z,58.84
2022-07-25T19:16:32.765Z,60.06
2022-07-25T19:21:37.822Z,60.90
2022-07-25T19:26:42.994Z,61.28
2022-07-25T19:31:56.224Z,63.70
2022-07-25T19:37:01.184Z,63.25
2022-07-25T19:42:12.105Z,63.80
2022-07-25T19:47:19.595Z,64.70
2022-07-25T19:52:24.467Z,66.35
2022-07-25T19:57:29.631Z,65.69
2022-07-25T20:02:37.311Z,67.98
2022-07-25T20:07:42.732Z,68.72
2022-07-25T20:12:47.941Z,69.82
2022-07-25T20:17:56.805Z,71.53
2022-07-25T20:23:01.790Z,70.53
2022-07-25T20:28:07.461Z,70.82
2022-07-25T20:33:14.970Z,72.86
2022-07-25T20:38:19.858Z,72.49
2022-07-25T20:43:29.924Z,77.57
2022-07-25T20:48:38.159Z,77.61
2022-07-25T20:53:43.937Z,76.45
2022-07-25T20:58:49.785Z,75.82
2022-07-25T21:03:57.309Z,78.01
2022-07-25T21:09:02.433Z,80.58
2022-07-25T21:14:08.044Z,83.88
2022-07-25T21:19:15.916Z,86.63
2022-07-25T21:24:20.888Z,85.32
2022-07-25T21:29:25.864Z,84.77
2022-07-25T21:34:34.041Z,82.72
2022-07-25T21:39:38.946Z,83.61
2022-07-25T21:44:45.454Z,83.73
2022-07-25T21:50:05.676Z,84.82
2022-07-25T21:55:12.040Z,84.71
2022-07-25T22:00:18.460Z,88.84
2022-07-25T22:05:26.531Z,88.75
2022-07-25T22:10:32.003Z,87.90
2022-07-25T22:15:36.951Z,84.89
2022-07-25T22:20:45.334Z,85.85
2022-07-25T22:25:50.255Z,86.37
2022-07-25T22:30:55.314Z,84.27
2022-07-25T22:36:02.821Z,89.13
2022-07-25T22:41:08.271Z,90.82
2022-07-25T22:46:13.260Z,93.25
2022-07-25T22:51:23.197Z,91.86
2022-07-25T22:56:28.946Z,90.36
2022-07-25T23:01:33.902Z,95.18
2022-07-25T23:06:42.660Z,95.62
2022-07-25T23:11:49.210Z,98.51
2022-07-25T23:17:06.364Z,98.51
2022-07-25T23:22:21.064Z,100.00
2022-07-25T23:27:26.548Z,100.00
2022-07-25T23:32:31.547Z,100.00
2022-07-25T23:37:39.302Z,100.00
2022-07-25T23:42:44.274Z,100.00
2022-07-25T23:47:49.355Z,100.00
2022-07-25T23:52:56.913Z,100.00
2022-07-25T23:58:01.861Z,100.00
